Historyczne dane pomiarowe

Dodano dane terminowe – wersja testowa.

Dane z okresu 1951-2019

Wersja bazy: 1.34 [2019-03-16, lista zmian], aktualizacja planowana na 2019-04-15

Dane meteo z obszaru Polski uzyskane na podstawie danych udostępnionych przez Instytut Meteorologii i Gospodarki Wodnej – Państwowy Instytut Badawczy.

 

Wybierz Datę:    

       

TemperaturaWilgotnośćZachmurzenieWiatrCiśnienieWidzialnośćZjawiska
 Data    tng td wb rh cc ccl cl cm ch dir g1 g2 mslp ppp      
1994-06-25 00:00:00 5.2--- 3.2 4.387wxwx0wx--1021.5 979.4 0.0---wx
1994-06-25 01:00:00 3.7--- 2.8 3.394wxwx0wx--1021.6 979.3----wx
1994-06-25 02:00:00 3.4--- 3.2 3.398wxwx0wx--1021.4 979.0----wx
1994-06-25 03:00:00 2.5--- 2.3 2.498wxwx0wx--1021.4 978.9----wx
1994-06-25 04:00:00 3.2--- 2.7 3.097wxwx0wx--1021.2 978.8----wx
1994-06-25 05:00:00 7.2--- 5.3 6.388wxwx0wx--1020.5 978.7----wx
1994-06-25 06:00:00 12.0--- 6.3 9.168wxwx0wx--1019.5 978.4 0.0---wx
1994-06-25 07:00:00 16.5--- 9.5 12.663wxwx0wx--1018.6 978.2----wx
1994-06-25 08:00:00 21.2--- 4.9 12.634wxwx2wx--1017.4 977.7----wx
1994-06-25 09:00:00 22.8--- 5.0 13.331wxwx4wx--1017.1 977.6----wx
1994-06-25 10:00:00 23.4--- 4.6 13.429wxwx4wx--1016.8 977.4----wx
1994-06-25 11:00:00 24.9--- 4.9 14.127wxwx4wx--1016.3 977.1----wx
1994-06-25 12:00:00 26.5--- 4.5 14.624wxwx5wx--1015.8 976.8 0.0---wx
1994-06-25 13:00:00 26.1--- 5.2 14.726wxwx4wx--1015.4 976.4----wx
1994-06-25 14:00:00 26.5--- 5.1 14.825wxwx4wx--1014.9 976.0----wx
1994-06-25 15:00:00 26.3--- 2.5 13.921wxwx5wx--1014.6 975.7----wx
1994-06-25 16:00:00 26.3--- 3.8 14.323wxwxwx4wx--1014.3 975.4----wx
1994-06-25 17:00:00 25.5--- 5.9 14.728wxwxwx3wx--1014.1 975.1----wx
1994-06-25 18:00:00 23.9--- 7.8 14.836wxwxwx2wx--1014.1 974.9 0.0---wx
1994-06-25 19:00:00 21.3--- 9.2 14.446wxwx1wx--1014.6 975.0----wx
1994-06-25 20:00:00 18.4--- 8.7 13.053wxwx1wx--1015.3 975.3----wx
1994-06-25 21:00:00 18.6--- 7.9 12.750wxwx3wx--1015.3 975.3----wx
1994-06-25 22:00:00 15.8--- 8.5 11.862wxwx0wx--1016.0 975.6----wx
1994-06-25 23:00:00 13.2--- 7.9 10.470wxwx0wx--1016.0 975.3----wx

 

Źródłem pochodzenia danych jest Instytut Meteorologii i Gospodarki Wodnej – Państwowy Instytut Badawczy. Dane Instytutu Meteorologii i Gospodarki Wodnej – Państwowego Instytutu Badawczego zostały przetworzone.

Dane źródłowe można odnaleźć na stronie https://dane.imgw.pl